sensor_id;sensor_type;location;lat;lon;timestamp;pressure;altitude;pressure_sealevel;temperature;humidity
13869;BME280;7004;48.206;16.402;2023-06-04T00:01:09;99885.56;;;16.68;51.08
13869;BME280;7004;48.206;16.402;2023-06-04T00:03:37;99890.13;;;16.56;51.16
13869;BME280;7004;48.206;16.402;2023-06-04T00:06:04;99890.47;;;16.84;50.73
13869;BME280;7004;48.206;16.402;2023-06-04T00:08:30;99885.25;;;16.62;51.36
13869;BME280;7004;48.206;16.402;2023-06-04T00:10:56;99878.34;;;16.59;51.50
13869;BME280;7004;48.206;16.402;2023-06-04T00:13:23;99880.69;;;16.73;51.27
13869;BME280;7004;48.206;16.402;2023-06-04T00:15:49;99876.78;;;16.77;51.23
13869;BME280;7004;48.206;16.402;2023-06-04T00:18:15;99875.69;;;16.80;51.15
13869;BME280;7004;48.206;16.402;2023-06-04T00:20:42;99877.53;;;16.37;52.42
13869;BME280;7004;48.206;16.402;2023-06-04T00:23:09;99874.13;;;16.56;51.88
13869;BME280;7004;48.206;16.402;2023-06-04T00:25:36;99880.94;;;16.49;52.54
13869;BME280;7004;48.206;16.402;2023-06-04T00:28:03;99876.47;;;16.50;52.07
13869;BME280;7004;48.206;16.402;2023-06-04T00:30:29;99883.44;;;16.41;52.46
13869;BME280;7004;48.206;16.402;2023-06-04T00:32:56;99868.22;;;16.32;52.53
13869;BME280;7004;48.206;16.402;2023-06-04T00:35:22;99863.19;;;16.38;52.47
13869;BME280;7004;48.206;16.402;2023-06-04T00:37:48;99872.25;;;16.26;52.98
13869;BME280;7004;48.206;16.402;2023-06-04T00:40:14;99868.34;;;16.51;51.77
13869;BME280;7004;48.206;16.402;2023-06-04T00:42:41;99863.81;;;16.42;51.95
13869;BME280;7004;48.206;16.402;2023-06-04T00:45:09;99865.94;;;16.48;51.77
13869;BME280;7004;48.206;16.402;2023-06-04T00:47:36;99867.16;;;16.44;52.11
13869;BME280;7004;48.206;16.402;2023-06-04T00:50:02;99869.56;;;16.47;52.16
13869;BME280;7004;48.206;16.402;2023-06-04T00:52:28;99866.59;;;16.41;52.55
13869;BME280;7004;48.206;16.402;2023-06-04T00:54:54;99867.78;;;16.27;53.17
13869;BME280;7004;48.206;16.402;2023-06-04T00:57:22;99864.00;;;16.29;52.67
13869;BME280;7004;48.206;16.402;2023-06-04T00:59:49;99857.94;;;16.06;53.64
13869;BME280;7004;48.206;16.402;2023-06-04T01:02:22;99862.28;;;16.28;52.75
13869;BME280;7004;48.206;16.402;2023-06-04T01:05:39;99874.69;;;15.97;53.51
13869;BME280;7004;48.206;16.402;2023-06-04T01:08:12;99868.22;;;15.79;54.42
13869;BME280;7004;48.206;16.402;2023-06-04T01:10:51;99864.03;;;15.65;54.68
13869;BME280;7004;48.206;16.402;2023-06-04T01:13:18;99863.94;;;15.55;55.06
13869;BME280;7004;48.206;16.402;2023-06-04T01:15:45;99872.84;;;15.65;54.74
13869;BME280;7004;48.206;16.402;2023-06-04T01:18:15;99865.28;;;15.49;55.28
13869;BME280;7004;48.206;16.402;2023-06-04T01:21:08;99865.03;;;15.52;54.72
13869;BME280;7004;48.206;16.402;2023-06-04T01:23:52;99867.72;;;15.41;55.58
13869;BME280;7004;48.206;16.402;2023-06-04T01:26:30;99863.97;;;15.44;55.58
13869;BME280;7004;48.206;16.402;2023-06-04T01:28:58;99861.53;;;15.52;55.28
13869;BME280;7004;48.206;16.402;2023-06-04T01:31:27;99860.44;;;15.43;55.31
13869;BME280;7004;48.206;16.402;2023-06-04T01:33:55;99858.38;;;15.47;55.41
13869;BME280;7004;48.206;16.402;2023-06-04T01:36:24;99861.03;;;15.47;55.67
13869;BME280;7004;48.206;16.402;2023-06-04T01:38:51;99860.94;;;15.37;56.00
13869;BME280;7004;48.206;16.402;2023-06-04T01:41:18;99862.63;;;15.38;56.18
13869;BME280;7004;48.206;16.402;2023-06-04T01:43:44;99864.94;;;15.32;56.08
13869;BME280;7004;48.206;16.402;2023-06-04T01:46:11;99867.50;;;15.22;56.29
13869;BME280;7004;48.206;16.402;2023-06-04T01:48:37;99866.97;;;15.50;55.28
13869;BME280;7004;48.206;16.402;2023-06-04T01:51:05;99857.97;;;15.63;54.62
13869;BME280;7004;48.206;16.402;2023-06-04T01:53:32;99863.03;;;15.22;56.15
13869;BME280;7004;48.206;16.402;2023-06-04T01:55:58;99857.84;;;15.64;55.19
13869;BME280;7004;48.206;16.402;2023-06-04T01:58:25;99859.59;;;15.54;55.30
13869;BME280;7004;48.206;16.402;2023-06-04T02:00:55;99866.06;;;15.61;55.30
13869;BME280;7004;48.206;16.402;2023-06-04T02:03:22;99860.53;;;15.64;55.13
13869;BME280;7004;48.206;16.402;2023-06-04T02:05:49;99865.81;;;15.76;54.68
13869;BME280;7004;48.206;16.402;2023-06-04T02:08:16;99870.00;;;15.89;54.19
13869;BME280;7004;48.206;16.402;2023-06-04T02:10:48;99862.63;;;15.49;55.86
13869;BME280;7004;48.206;16.402;2023-06-04T02:13:15;99867.50;;;15.33;56.38
13869;BME280;7004;48.206;16.402;2023-06-04T02:15:41;99858.16;;;15.27;57.28
13869;BME280;7004;48.206;16.402;2023-06-04T02:18:17;99860.13;;;15.25;56.94
13869;BME280;7004;48.206;16.402;2023-06-04T02:20:45;99858.69;;;15.21;57.18
13869;BME280;7004;48.206;16.402;2023-06-04T02:23:12;99865.19;;;15.17;56.87
13869;BME280;7004;48.206;16.402;2023-06-04T02:25:39;99863.03;;;15.22;56.64
13869;BME280;7004;48.206;16.402;2023-06-04T02:28:06;99857.66;;;15.45;56.00
13869;BME280;7004;48.206;16.402;2023-06-04T02:30:32;99861.16;;;15.57;55.72
13869;BME280;7004;48.206;16.402;2023-06-04T02:32:59;99862.31;;;15.64;55.80
13869;BME280;7004;48.206;16.402;2023-06-04T02:35:28;99854.84;;;15.58;55.69
13869;BME280;7004;48.206;16.402;2023-06-04T02:37:55;99853.72;;;15.71;55.52
13869;BME280;7004;48.206;16.402;2023-06-04T02:40:27;99849.47;;;15.80;55.04
13869;BME280;7004;48.206;16.402;2023-06-04T02:42:55;99848.59;;;15.80;55.94
13869;BME280;7004;48.206;16.402;2023-06-04T02:45:22;99855.91;;;15.99;55.81
13869;BME280;7004;48.206;16.402;2023-06-04T02:47:49;99853.19;;;16.10;55.33
13869;BME280;7004;48.206;16.402;2023-06-04T02:50:16;99861.97;;;16.01;55.31
13869;BME280;7004;48.206;16.402;2023-06-04T02:52:42;99867.66;;;15.75;56.26
13869;BME280;7004;48.206;16.402;2023-06-04T02:55:10;99867.25;;;15.80;56.18
13869;BME280;7004;48.206;16.402;2023-06-04T02:57:40;99862.78;;;15.80;55.82
13869;BME280;7004;48.206;16.402;2023-06-04T03:00:14;99862.16;;;15.44;57.12
13869;BME280;7004;48.206;16.402;2023-06-04T03:02:46;99866.22;;;15.60;57.18
13869;BME280;7004;48.206;16.402;2023-06-04T03:05:15;99861.34;;;15.65;55.94
13869;BME280;7004;48.206;16.402;2023-06-04T03:07:45;99865.13;;;15.51;57.16
13869;BME280;7004;48.206;16.402;2023-06-04T03:10:15;99860.59;;;15.85;55.65
13869;BME280;7004;48.206;16.402;2023-06-04T03:12:41;99857.78;;;16.08;55.14
13869;BME280;7004;48.206;16.402;2023-06-04T03:15:09;99864.25;;;16.26;54.76
13869;BME280;7004;48.206;16.402;2023-06-04T03:17:36;99863.59;;;16.13;55.50
13869;BME280;7004;48.206;16.402;2023-06-04T03:20:03;99864.63;;;16.64;54.11
13869;BME280;7004;48.206;16.402;2023-06-04T03:22:33;99865.94;;;16.48;54.37
13869;BME280;7004;48.206;16.402;2023-06-04T03:25:04;99864.78;;;16.20;54.40
13869;BME280;7004;48.206;16.402;2023-06-04T03:27:32;99866.84;;;16.37;54.58
13869;BME280;7004;48.206;16.402;2023-06-04T03:29:58;99873.50;;;16.74;53.96
13869;BME280;7004;48.206;16.402;2023-06-04T03:32:25;99874.63;;;16.71;53.89
13869;BME280;7004;48.206;16.402;2023-06-04T03:34:52;99880.16;;;16.79;52.97
13869;BME280;7004;48.206;16.402;2023-06-04T03:37:19;99882.22;;;16.97;53.03
13869;BME280;7004;48.206;16.402;2023-06-04T03:39:46;99883.72;;;16.90;53.16
13869;BME280;7004;48.206;16.402;2023-06-04T03:42:12;99886.66;;;17.17;52.89
13869;BME280;7004;48.206;16.402;2023-06-04T03:44:39;99886.03;;;17.04;52.76
13869;BME280;7004;48.206;16.402;2023-06-04T03:47:05;99891.53;;;17.02;52.83
13869;BME280;7004;48.206;16.402;2023-06-04T03:49:31;99893.16;;;16.94;53.47
13869;BME280;7004;48.206;16.402;2023-06-04T03:51:57;99890.34;;;16.44;54.92
13869;BME280;7004;48.206;16.402;2023-06-04T03:54:24;99889.69;;;16.51;54.53
13869;BME280;7004;48.206;16.402;2023-06-04T03:56:50;99897.75;;;16.61;55.03
13869;BME280;7004;48.206;16.402;2023-06-04T03:59:16;99900.88;;;16.66;54.90
13869;BME280;7004;48.206;16.402;2023-06-04T04:01:43;99896.94;;;16.70;54.55
13869;BME280;7004;48.206;16.402;2023-06-04T04:04:11;99891.97;;;16.56;55.46
13869;BME280;7004;48.206;16.402;2023-06-04T04:06:37;99887.19;;;16.59;56.37
13869;BME280;7004;48.206;16.402;2023-06-04T04:09:05;99893.88;;;16.96;54.32
13869;BME280;7004;48.206;16.402;2023-06-04T04:11:33;99896.94;;;16.70;54.76
13869;BME280;7004;48.206;16.402;2023-06-04T04:13:59;99900.38;;;17.03;54.47
13869;BME280;7004;48.206;16.402;2023-06-04T04:16:28;99894.09;;;16.62;55.19
13869;BME280;7004;48.206;16.402;2023-06-04T04:18:55;99895.81;;;16.63;54.07
13869;BME280;7004;48.206;16.402;2023-06-04T04:21:22;99893.97;;;16.64;54.21
13869;BME280;7004;48.206;16.402;2023-06-04T04:23:50;99895.09;;;16.82;54.54
13869;BME280;7004;48.206;16.402;2023-06-04T04:26:18;99898.91;;;17.20;53.30
13869;BME280;7004;48.206;16.402;2023-06-04T04:28:44;99898.75;;;17.21;53.22
13869;BME280;7004;48.206;16.402;2023-06-04T04:31:11;99899.81;;;17.09;54.10
13869;BME280;7004;48.206;16.402;2023-06-04T04:33:38;99892.56;;;17.21;54.61
13869;BME280;7004;48.206;16.402;2023-06-04T04:36:06;99904.25;;;17.30;53.46
13869;BME280;7004;48.206;16.402;2023-06-04T04:38:39;99907.47;;;17.23;52.92
13869;BME280;7004;48.206;16.402;2023-06-04T04:41:06;99898.06;;;16.68;54.72
13869;BME280;7004;48.206;16.402;2023-06-04T04:43:35;99899.44;;;17.14;54.51
13869;BME280;7004;48.206;16.402;2023-06-04T04:46:03;99908.22;;;17.45;53.62
13869;BME280;7004;48.206;16.402;2023-06-04T04:48:31;99902.53;;;16.88;55.14
13869;BME280;7004;48.206;16.402;2023-06-04T04:50:59;99909.66;;;16.78;54.61
13869;BME280;7004;48.206;16.402;2023-06-04T04:53:26;99904.66;;;17.25;55.02
13869;BME280;7004;48.206;16.402;2023-06-04T04:55:53;99910.47;;;17.40;54.24
13869;BME280;7004;48.206;16.402;2023-06-04T04:58:20;99914.94;;;17.20;55.60
13869;BME280;7004;48.206;16.402;2023-06-04T05:00:47;99909.44;;;17.21;55.23
13869;BME280;7004;48.206;16.402;2023-06-04T05:03:13;99911.88;;;17.03;55.40
13869;BME280;7004;48.206;16.402;2023-06-04T05:05:40;99906.28;;;17.07;55.49
13869;BME280;7004;48.206;16.402;2023-06-04T05:08:06;99904.91;;;17.62;54.79
13869;BME280;7004;48.206;16.402;2023-06-04T05:10:33;99914.22;;;17.78;54.68
13869;BME280;7004;48.206;16.402;2023-06-04T05:13:02;99918.91;;;16.95;55.96
13869;BME280;7004;48.206;16.402;2023-06-04T05:15:28;99909.06;;;17.36;56.01
13869;BME280;7004;48.206;16.402;2023-06-04T05:17:55;99907.44;;;17.14;56.26
13869;BME280;7004;48.206;16.402;2023-06-04T05:20:22;99916.44;;;17.22;56.47
13869;BME280;7004;48.206;16.402;2023-06-04T05:22:49;99915.28;;;17.56;55.76
13869;BME280;7004;48.206;16.402;2023-06-04T05:25:17;99928.56;;;17.27;56.75
13869;BME280;7004;48.206;16.402;2023-06-04T05:27:43;99933.31;;;17.54;55.95
13869;BME280;7004;48.206;16.402;2023-06-04T05:30:10;99935.59;;;17.28;55.37
13869;BME280;7004;48.206;16.402;2023-06-04T05:32:37;99940.19;;;17.46;55.32
13869;BME280;7004;48.206;16.402;2023-06-04T05:35:07;99942.00;;;17.56;55.82
13869;BME280;7004;48.206;16.402;2023-06-04T05:37:34;99942.19;;;17.74;55.95
13869;BME280;7004;48.206;16.402;2023-06-04T05:40:01;99950.28;;;17.43;56.33
13869;BME280;7004;48.206;16.402;2023-06-04T05:42:31;99944.84;;;17.64;55.70
13869;BME280;7004;48.206;16.402;2023-06-04T05:44:57;99956.09;;;17.58;56.38
13869;BME280;7004;48.206;16.402;2023-06-04T05:47:24;99953.81;;;17.53;54.55
13869;BME280;7004;48.206;16.402;2023-06-04T05:49:50;99950.00;;;17.86;55.41
13869;BME280;7004;48.206;16.402;2023-06-04T05:52:16;99950.88;;;17.46;56.07
13869;BME280;7004;48.206;16.402;2023-06-04T05:54:42;99947.75;;;17.41;58.19
13869;BME280;7004;48.206;16.402;2023-06-04T05:57:08;99951.34;;;17.21;56.78
13869;BME280;7004;48.206;16.402;2023-06-04T05:59:34;99956.06;;;17.48;55.30
13869;BME280;7004;48.206;16.402;2023-06-04T06:02:00;99948.66;;;17.71;54.48
13869;BME280;7004;48.206;16.402;2023-06-04T06:04:27;99956.16;;;17.77;55.24
13869;BME280;7004;48.206;16.402;2023-06-04T06:06:53;99963.03;;;17.70;54.05
13869;BME280;7004;48.206;16.402;2023-06-04T06:09:19;99965.09;;;18.07;52.39
13869;BME280;7004;48.206;16.402;2023-06-04T06:11:45;99974.38;;;17.93;53.27
13869;BME280;7004;48.206;16.402;2023-06-04T06:14:11;99972.00;;;18.29;52.86
13869;BME280;7004;48.206;16.402;2023-06-04T06:16:38;99972.69;;;18.31;52.92
13869;BME280;7004;48.206;16.402;2023-06-04T06:19:04;99973.44;;;17.73;53.28
13869;BME280;7004;48.206;16.402;2023-06-04T06:21:30;99977.75;;;18.15;53.38
13869;BME280;7004;48.206;16.402;2023-06-04T06:23:56;99975.22;;;18.03;52.95
13869;BME280;7004;48.206;16.402;2023-06-04T06:26:22;99978.91;;;18.22;51.53
13869;BME280;7004;48.206;16.402;2023-06-04T06:28:50;99975.91;;;17.96;53.32
13869;BME280;7004;48.206;16.402;2023-06-04T06:31:16;99974.94;;;18.26;52.09
13869;BME280;7004;48.206;16.402;2023-06-04T06:33:42;99979.31;;;18.56;51.54
13869;BME280;7004;48.206;16.402;2023-06-04T06:36:12;99973.69;;;18.30;52.96
13869;BME280;7004;48.206;16.402;2023-06-04T06:38:39;99977.22;;;18.40;51.64
13869;BME280;7004;48.206;16.402;2023-06-04T06:41:07;99977.75;;;18.63;51.81
13869;BME280;7004;48.206;16.402;2023-06-04T06:43:33;99982.56;;;18.11;53.69
13869;BME280;7004;48.206;16.402;2023-06-04T06:45:59;99982.81;;;18.08;53.22
13869;BME280;7004;48.206;16.402;2023-06-04T06:48:26;99981.25;;;17.86;52.97
13869;BME280;7004;48.206;16.402;2023-06-04T06:50:53;99980.56;;;18.23;52.51
13869;BME280;7004;48.206;16.402;2023-06-04T06:53:20;99974.22;;;17.95;51.75
13869;BME280;7004;48.206;16.402;2023-06-04T06:55:46;99981.44;;;17.63;52.69
13869;BME280;7004;48.206;16.402;2023-06-04T06:58:12;99979.28;;;17.98;52.38
13869;BME280;7004;48.206;16.402;2023-06-04T07:00:38;99988.84;;;18.00;51.46
13869;BME280;7004;48.206;16.402;2023-06-04T07:03:04;99995.00;;;17.81;53.57
13869;BME280;7004;48.206;16.402;2023-06-04T07:05:31;99989.25;;;17.86;52.40
13869;BME280;7004;48.206;16.402;2023-06-04T07:07:57;99992.81;;;18.16;51.50
13869;BME280;7004;48.206;16.402;2023-06-04T07:10:24;99987.25;;;17.78;51.86
13869;BME280;7004;48.206;16.402;2023-06-04T07:12:50;99989.28;;;18.05;52.28
13869;BME280;7004;48.206;16.402;2023-06-04T07:15:16;99993.25;;;18.40;52.54
13869;BME280;7004;48.206;16.402;2023-06-04T07:17:43;99987.47;;;18.25;52.89
13869;BME280;7004;48.206;16.402;2023-06-04T07:20:09;99986.34;;;18.76;53.31
13869;BME280;7004;48.206;16.402;2023-06-04T07:22:35;99978.28;;;18.96;53.42
13869;BME280;7004;48.206;16.402;2023-06-04T07:25:01;99982.69;;;18.77;52.33
13869;BME280;7004;48.206;16.402;2023-06-04T07:27:27;99970.53;;;18.93;51.81
13869;BME280;7004;48.206;16.402;2023-06-04T07:29:53;99973.28;;;19.20;51.15
13869;BME280;7004;48.206;16.402;2023-06-04T07:32:20;99970.41;;;18.85;48.73
13869;BME280;7004;48.206;16.402;2023-06-04T07:34:46;99966.47;;;18.89;49.04
13869;BME280;7004;48.206;16.402;2023-06-04T07:37:12;99968.84;;;18.72;49.69
13869;BME280;7004;48.206;16.402;2023-06-04T07:39:39;99970.91;;;19.45;49.12
13869;BME280;7004;48.206;16.402;2023-06-04T07:42:06;99973.94;;;18.85;48.19
13869;BME280;7004;48.206;16.402;2023-06-04T07:44:37;99972.75;;;19.45;48.42
13869;BME280;7004;48.206;16.402;2023-06-04T07:47:04;99971.00;;;20.08;47.55
13869;BME280;7004;48.206;16.402;2023-06-04T07:49:30;99981.91;;;19.79;48.97
13869;BME280;7004;48.206;16.402;2023-06-04T07:51:56;99980.03;;;19.52;49.90
13869;BME280;7004;48.206;16.402;2023-06-04T07:54:23;99984.47;;;20.17;46.96
13869;BME280;7004;48.206;16.402;2023-06-04T07:56:49;99987.38;;;20.41;47.30
13869;BME280;7004;48.206;16.402;2023-06-04T07:59:15;99988.91;;;21.06;46.90
13869;BME280;7004;48.206;16.402;2023-06-04T08:01:41;99986.88;;;20.56;48.20
13869;BME280;7004;48.206;16.402;2023-06-04T08:04:07;99979.84;;;20.55;46.84
13869;BME280;7004;48.206;16.402;2023-06-04T08:06:33;99987.47;;;20.67;45.48
13869;BME280;7004;48.206;16.402;2023-06-04T08:09:01;99992.69;;;20.33;46.88
13869;BME280;7004;48.206;16.402;2023-06-04T08:11:27;99994.94;;;20.56;46.34
13869;BME280;7004;48.206;16.402;2023-06-04T08:13:53;99987.88;;;20.19;46.53
13869;BME280;7004;48.206;16.402;2023-06-04T08:16:20;99992.75;;;21.03;45.25
13869;BME280;7004;48.206;16.402;2023-06-04T08:18:46;99993.94;;;21.35;45.64
13869;BME280;7004;48.206;16.402;2023-06-04T08:21:12;99997.72;;;20.90;46.63
13869;BME280;7004;48.206;16.402;2023-06-04T08:23:42;99994.59;;;21.63;46.21
13869;BME280;7004;48.206;16.402;2023-06-04T08:26:08;99991.06;;;21.28;46.09
13869;BME280;7004;48.206;16.402;2023-06-04T08:28:35;99995.13;;;21.58;45.84
13869;BME280;7004;48.206;16.402;2023-06-04T08:31:01;99983.09;;;21.45;45.63
13869;BME280;7004;48.206;16.402;2023-06-04T08:33:28;99996.09;;;21.57;46.19
13869;BME280;7004;48.206;16.402;2023-06-04T08:35:54;99992.00;;;20.67;46.15
13869;BME280;7004;48.206;16.402;2023-06-04T08:38:21;99994.22;;;21.50;44.51
13869;BME280;7004;48.206;16.402;2023-06-04T08:40:52;100001.19;;;21.08;46.88
13869;BME280;7004;48.206;16.402;2023-06-04T08:43:21;100010.16;;;21.17;45.52
13869;BME280;7004;48.206;16.402;2023-06-04T08:45:49;100019.63;;;21.03;46.89
13869;BME280;7004;48.206;16.402;2023-06-04T08:48:19;100022.31;;;21.03;46.14
13869;BME280;7004;48.206;16.402;2023-06-04T08:50:48;100012.22;;;20.97;47.52
13869;BME280;7004;48.206;16.402;2023-06-04T08:53:15;100022.06;;;21.14;46.49
13869;BME280;7004;48.206;16.402;2023-06-04T08:55:43;100021.56;;;22.22;45.60
13869;BME280;7004;48.206;16.402;2023-06-04T08:58:10;100024.84;;;21.31;47.25
13869;BME280;7004;48.206;16.402;2023-06-04T09:04:46;100020.78;;;21.27;47.46
13869;BME280;7004;48.206;16.402;2023-06-04T09:07:13;100028.91;;;21.09;47.72
13869;BME280;7004;48.206;16.402;2023-06-04T09:09:42;100030.53;;;21.96;45.73
13869;BME280;7004;48.206;16.402;2023-06-04T09:12:20;100030.50;;;22.31;45.48
13869;BME280;7004;48.206;16.402;2023-06-04T09:18:41;100031.22;;;22.98;44.09
13869;BME280;7004;48.206;16.402;2023-06-04T09:21:08;100032.22;;;23.05;42.62
13869;BME280;7004;48.206;16.402;2023-06-04T09:23:48;100027.81;;;22.88;42.87
13869;BME280;7004;48.206;16.402;2023-06-04T09:26:14;100033.22;;;22.96;43.34
13869;BME280;7004;48.206;16.402;2023-06-04T09:28:45;100030.03;;;22.84;43.96
13869;BME280;7004;48.206;16.402;2023-06-04T09:31:16;100029.69;;;22.79;44.29
13869;BME280;7004;48.206;16.402;2023-06-04T09:33:48;100037.25;;;22.51;44.45
13869;BME280;7004;48.206;16.402;2023-06-04T09:36:14;100025.81;;;22.57;43.80
13869;BME280;7004;48.206;16.402;2023-06-04T09:38:41;100029.22;;;21.58;46.40
13869;BME280;7004;48.206;16.402;2023-06-04T09:41:18;100034.13;;;22.05;45.11
13869;BME280;7004;48.206;16.402;2023-06-04T09:43:45;100020.78;;;23.11;43.99
13869;BME280;7004;48.206;16.402;2023-06-04T09:46:13;100030.78;;;22.11;45.05
13869;BME280;7004;48.206;16.402;2023-06-04T09:48:40;100032.44;;;22.12;47.08
13869;BME280;7004;48.206;16.402;2023-06-04T09:51:16;100032.19;;;21.89;45.17
13869;BME280;7004;48.206;16.402;2023-06-04T09:54:00;100032.91;;;22.83;43.19
13869;BME280;7004;48.206;16.402;2023-06-04T09:56:27;100028.22;;;23.57;41.45
13869;BME280;7004;48.206;16.402;2023-06-04T09:59:01;100022.97;;;25.18;39.96
13869;BME280;7004;48.206;16.402;2023-06-04T10:01:29;100026.63;;;23.87;40.07
13869;BME280;7004;48.206;16.402;2023-06-04T10:03:58;100027.38;;;24.04;39.99
13869;BME280;7004;48.206;16.402;2023-06-04T10:06:33;100033.16;;;22.22;43.54
13869;BME280;7004;48.206;16.402;2023-06-04T10:09:10;100030.91;;;23.01;42.97
13869;BME280;7004;48.206;16.402;2023-06-04T10:11:51;100030.22;;;22.83;43.12
13869;BME280;7004;48.206;16.402;2023-06-04T10:14:21;100025.31;;;23.67;41.13
13869;BME280;7004;48.206;16.402;2023-06-04T10:16:51;100011.81;;;25.51;40.10
13869;BME280;7004;48.206;16.402;2023-06-04T10:19:18;100016.28;;;25.44;38.31
13869;BME280;7004;48.206;16.402;2023-06-04T10:21:45;100026.34;;;23.74;40.98
13869;BME280;7004;48.206;16.402;2023-06-04T10:24:13;100018.16;;;24.91;39.44
13869;BME280;7004;48.206;16.402;2023-06-04T10:26:41;100020.41;;;25.02;38.70
13869;BME280;7004;48.206;16.402;2023-06-04T10:29:08;100019.44;;;24.34;40.95
13869;BME280;7004;48.206;16.402;2023-06-04T10:31:37;100031.13;;;23.47;41.17
13869;BME280;7004;48.206;16.402;2023-06-04T10:34:22;100023.13;;;24.33;39.48
13869;BME280;7004;48.206;16.402;2023-06-04T10:36:52;100023.31;;;23.69;41.46
13869;BME280;7004;48.206;16.402;2023-06-04T10:39:28;100029.22;;;23.72;40.58
13869;BME280;7004;48.206;16.402;2023-06-04T10:42:05;100028.66;;;22.72;41.78
13869;BME280;7004;48.206;16.402;2023-06-04T10:44:44;100037.03;;;22.20;42.26
13869;BME280;7004;48.206;16.402;2023-06-04T10:47:25;100034.53;;;21.84;44.11
13869;BME280;7004;48.206;16.402;2023-06-04T10:49:54;100036.75;;;22.64;42.53
13869;BME280;7004;48.206;16.402;2023-06-04T10:52:24;100034.75;;;22.74;42.11
13869;BME280;7004;48.206;16.402;2023-06-04T10:54:50;100044.69;;;22.82;42.87
13869;BME280;7004;48.206;16.402;2023-06-04T10:57:19;100039.63;;;21.87;45.19
13869;BME280;7004;48.206;16.402;2023-06-04T10:59:59;100037.09;;;22.77;43.91
13869;BME280;7004;48.206;16.402;2023-06-04T11:02:31;100036.31;;;23.57;42.66
13869;BME280;7004;48.206;16.402;2023-06-04T11:05:16;100033.06;;;23.22;42.91
13869;BME280;7004;48.206;16.402;2023-06-04T11:08:01;100041.13;;;22.49;43.68
13869;BME280;7004;48.206;16.402;2023-06-04T11:10:45;100039.78;;;22.36;44.85
13869;BME280;7004;48.206;16.402;2023-06-04T11:13:12;100045.69;;;22.56;43.36
13869;BME280;7004;48.206;16.402;2023-06-04T11:15:45;100034.66;;;23.56;42.71
13869;BME280;7004;48.206;16.402;2023-06-04T11:18:20;100041.66;;;23.82;41.26
13869;BME280;7004;48.206;16.402;2023-06-04T11:21:25;100040.50;;;23.68;40.86
13869;BME280;7004;48.206;16.402;2023-06-04T11:23:58;100032.34;;;23.92;42.36
13869;BME280;7004;48.206;16.402;2023-06-04T11:26:34;100042.00;;;24.41;41.91
13869;BME280;7004;48.206;16.402;2023-06-04T11:29:06;100033.50;;;23.50;41.55
13869;BME280;7004;48.206;16.402;2023-06-04T11:31:49;100042.34;;;23.03;41.93
13869;BME280;7004;48.206;16.402;2023-06-04T11:34:27;100033.66;;;23.49;44.10
13869;BME280;7004;48.206;16.402;2023-06-04T11:37:55;100036.28;;;23.73;43.00
13869;BME280;7004;48.206;16.402;2023-06-04T11:40:23;100032.38;;;24.15;42.18
13869;BME280;7004;48.206;16.402;2023-06-04T11:42:50;100034.28;;;23.59;43.02
13869;BME280;7004;48.206;16.402;2023-06-04T11:45:21;100038.78;;;23.11;45.13
13869;BME280;7004;48.206;16.402;2023-06-04T11:47:54;100029.47;;;23.86;42.21
13869;BME280;7004;48.206;16.402;2023-06-04T11:50:22;100033.03;;;24.17;41.68
13869;BME280;7004;48.206;16.402;2023-06-04T11:52:49;100032.69;;;24.52;42.19
13869;BME280;7004;48.206;16.402;2023-06-04T11:55:16;100029.28;;;23.95;42.78
13869;BME280;7004;48.206;16.402;2023-06-04T11:57:43;100034.53;;;23.41;42.26
13869;BME280;7004;48.206;16.402;2023-06-04T12:00:10;100040.63;;;22.45;44.36
13869;BME280;7004;48.206;16.402;2023-06-04T12:03:03;100043.50;;;22.76;43.37
13869;BME280;7004;48.206;16.402;2023-06-04T12:05:31;100042.97;;;23.30;42.10
13869;BME280;7004;48.206;16.402;2023-06-04T12:08:10;100032.75;;;24.04;41.44
13869;BME280;7004;48.206;16.402;2023-06-04T12:10:43;100045.00;;;22.87;43.10
13869;BME280;7004;48.206;16.402;2023-06-04T12:13:10;100040.28;;;22.64;44.14
13869;BME280;7004;48.206;16.402;2023-06-04T12:15:36;100037.13;;;23.66;42.43
13869;BME280;7004;48.206;16.402;2023-06-04T12:18:23;100029.66;;;23.28;43.41
13869;BME280;7004;48.206;16.402;2023-06-04T12:20:49;100026.81;;;23.77;42.60
13869;BME280;7004;48.206;16.402;2023-06-04T12:23:21;100027.50;;;23.71;43.47
13869;BME280;7004;48.206;16.402;2023-06-04T12:25:50;100019.25;;;23.65;45.34
13869;BME280;7004;48.206;16.402;2023-06-04T12:28:20;100027.84;;;23.68;43.49
13869;BME280;7004;48.206;16.402;2023-06-04T12:30:46;100035.63;;;22.99;44.32
13869;BME280;7004;48.206;16.402;2023-06-04T12:33:22;100036.72;;;23.38;43.97
13869;BME280;7004;48.206;16.402;2023-06-04T12:35:49;100032.34;;;23.28;43.71
13869;BME280;7004;48.206;16.402;2023-06-04T12:38:16;100033.47;;;23.59;43.07
13869;BME280;7004;48.206;16.402;2023-06-04T12:40:42;100028.91;;;23.59;43.67
13869;BME280;7004;48.206;16.402;2023-06-04T12:43:08;100037.22;;;24.28;43.66
13869;BME280;7004;48.206;16.402;2023-06-04T12:45:34;100030.88;;;23.82;43.38
13869;BME280;7004;48.206;16.402;2023-06-04T12:48:00;100030.38;;;22.98;44.99
13869;BME280;7004;48.206;16.402;2023-06-04T12:50:26;100021.41;;;23.30;44.51
13869;BME280;7004;48.206;16.402;2023-06-04T12:52:52;100022.69;;;23.42;44.26
13869;BME280;7004;48.206;16.402;2023-06-04T12:55:18;100020.88;;;23.34;44.78
13869;BME280;7004;48.206;16.402;2023-06-04T12:57:45;100021.78;;;23.74;42.85
13869;BME280;7004;48.206;16.402;2023-06-04T13:00:12;100019.25;;;23.17;45.23
13869;BME280;7004;48.206;16.402;2023-06-04T13:02:38;100024.97;;;23.22;45.20
13869;BME280;7004;48.206;16.402;2023-06-04T13:05:04;100023.38;;;23.44;44.53
13869;BME280;7004;48.206;16.402;2023-06-04T13:07:31;100012.91;;;23.49;44.74
13869;BME280;7004;48.206;16.402;2023-06-04T13:09:57;100017.66;;;23.39;46.35
13869;BME280;7004;48.206;16.402;2023-06-04T13:12:23;100020.59;;;23.77;45.36
13869;BME280;7004;48.206;16.402;2023-06-04T13:14:50;100019.66;;;23.53;46.61